sensor_id;sensor_type;location;lat;lon;timestamp;P1;durP1;ratioP1;P2;durP2;ratioP2
21392;SDS011;10857;52.228;21.026;2023-04-25T00:02:47;26.40;;;18.80;;
21392;SDS011;10857;52.228;21.026;2023-04-25T00:05:15;21.83;;;17.20;;
21392;SDS011;10857;52.228;21.026;2023-04-25T00:07:43;27.67;;;19.30;;
21392;SDS011;10857;52.228;21.026;2023-04-25T00:10:10;26.40;;;18.60;;
21392;SDS011;10857;52.228;21.026;2023-04-25T00:12:38;26.00;;;18.40;;
21392;SDS011;10857;52.228;21.026;2023-04-25T00:18:08;27.42;;;18.83;;
21392;SDS011;10857;52.228;21.026;2023-04-25T00:20:35;26.42;;;19.13;;
21392;SDS011;10857;52.228;21.026;2023-04-25T00:23:02;27.83;;;18.20;;
21392;SDS011;10857;52.228;21.026;2023-04-25T00:25:30;24.08;;;18.55;;
21392;SDS011;10857;52.228;21.026;2023-04-25T00:27:57;26.30;;;19.30;;
21392;SDS011;10857;52.228;21.026;2023-04-25T00:30:24;26.40;;;18.90;;
21392;SDS011;10857;52.228;21.026;2023-04-25T00:32:51;23.35;;;17.98;;
21392;SDS011;10857;52.228;21.026;2023-04-25T00:35:19;24.60;;;19.63;;
21392;SDS011;10857;52.228;21.026;2023-04-25T00:37:47;27.60;;;20.25;;
21392;SDS011;10857;52.228;21.026;2023-04-25T00:40:14;24.80;;;19.63;;
21392;SDS011;10857;52.228;21.026;2023-04-25T00:42:42;27.23;;;20.33;;
21392;SDS011;10857;52.228;21.026;2023-04-25T00:45:09;25.42;;;20.17;;
21392;SDS011;10857;52.228;21.026;2023-04-25T00:47:41;33.90;;;21.10;;
21392;SDS011;10857;52.228;21.026;2023-04-25T00:50:09;31.05;;;20.20;;
21392;SDS011;10857;52.228;21.026;2023-04-25T00:52:41;29.02;;;19.80;;
21392;SDS011;10857;52.228;21.026;2023-04-25T00:55:10;29.55;;;20.40;;
21392;SDS011;10857;52.228;21.026;2023-04-25T00:57:39;30.00;;;19.83;;
21392;SDS011;10857;52.228;21.026;2023-04-25T01:00:07;38.53;;;21.20;;
21392;SDS011;10857;52.228;21.026;2023-04-25T01:02:36;30.45;;;20.17;;
21392;SDS011;10857;52.228;21.026;2023-04-25T01:05:03;31.75;;;20.58;;
21392;SDS011;10857;52.228;21.026;2023-04-25T01:07:31;27.98;;;20.80;;
21392;SDS011;10857;52.228;21.026;2023-04-25T01:09:58;27.38;;;20.33;;
21392;SDS011;10857;52.228;21.026;2023-04-25T01:12:26;29.85;;;20.35;;
21392;SDS011;10857;52.228;21.026;2023-04-25T01:14:54;25.25;;;20.00;;
21392;SDS011;10857;52.228;21.026;2023-04-25T01:17:21;25.92;;;19.75;;
21392;SDS011;10857;52.228;21.026;2023-04-25T01:19:49;26.98;;;20.33;;
21392;SDS011;10857;52.228;21.026;2023-04-25T01:22:16;27.48;;;20.45;;
21392;SDS011;10857;52.228;21.026;2023-04-25T01:24:45;24.25;;;19.00;;
21392;SDS011;10857;52.228;21.026;2023-04-25T01:27:12;28.73;;;19.90;;
21392;SDS011;10857;52.228;21.026;2023-04-25T01:29:40;32.08;;;21.05;;
21392;SDS011;10857;52.228;21.026;2023-04-25T01:32:07;25.65;;;20.38;;
21392;SDS011;10857;52.228;21.026;2023-04-25T01:34:35;26.23;;;19.45;;
21392;SDS011;10857;52.228;21.026;2023-04-25T01:37:02;28.15;;;19.20;;
21392;SDS011;10857;52.228;21.026;2023-04-25T01:39:30;29.77;;;19.00;;
21392;SDS011;10857;52.228;21.026;2023-04-25T01:41:58;28.42;;;19.23;;
21392;SDS011;10857;52.228;21.026;2023-04-25T01:44:26;22.92;;;17.48;;
21392;SDS011;10857;52.228;21.026;2023-04-25T01:46:53;26.98;;;18.95;;
21392;SDS011;10857;52.228;21.026;2023-04-25T01:49:21;27.67;;;19.40;;
21392;SDS011;10857;52.228;21.026;2023-04-25T01:51:49;28.35;;;19.10;;
21392;SDS011;10857;52.228;21.026;2023-04-25T01:54:16;24.05;;;18.73;;
21392;SDS011;10857;52.228;21.026;2023-04-25T01:56:49;25.52;;;18.48;;
21392;SDS011;10857;52.228;21.026;2023-04-25T01:59:18;26.65;;;19.33;;
21392;SDS011;10857;52.228;21.026;2023-04-25T02:01:48;25.60;;;19.30;;
21392;SDS011;10857;52.228;21.026;2023-04-25T02:04:22;24.48;;;18.52;;
21392;SDS011;10857;52.228;21.026;2023-04-25T02:06:50;30.67;;;19.27;;
21392;SDS011;10857;52.228;21.026;2023-04-25T02:09:17;26.33;;;19.75;;
21392;SDS011;10857;52.228;21.026;2023-04-25T02:11:50;26.27;;;19.48;;
21392;SDS011;10857;52.228;21.026;2023-04-25T02:14:23;24.92;;;19.33;;
21392;SDS011;10857;52.228;21.026;2023-04-25T02:16:58;25.20;;;18.77;;
21392;SDS011;10857;52.228;21.026;2023-04-25T02:19:26;27.25;;;18.75;;
21392;SDS011;10857;52.228;21.026;2023-04-25T02:21:53;25.52;;;18.30;;
21392;SDS011;10857;52.228;21.026;2023-04-25T02:24:21;26.03;;;18.70;;
21392;SDS011;10857;52.228;21.026;2023-04-25T02:26:48;28.10;;;19.13;;
21392;SDS011;10857;52.228;21.026;2023-04-25T02:29:16;24.97;;;18.83;;
21392;SDS011;10857;52.228;21.026;2023-04-25T02:31:43;25.23;;;18.63;;
21392;SDS011;10857;52.228;21.026;2023-04-25T02:34:11;24.10;;;17.87;;
21392;SDS011;10857;52.228;21.026;2023-04-25T02:36:38;24.97;;;17.93;;
21392;SDS011;10857;52.228;21.026;2023-04-25T02:39:06;25.07;;;18.00;;
21392;SDS011;10857;52.228;21.026;2023-04-25T02:41:33;25.90;;;17.90;;
21392;SDS011;10857;52.228;21.026;2023-04-25T02:44:00;24.57;;;18.33;;
21392;SDS011;10857;52.228;21.026;2023-04-25T02:46:28;24.10;;;16.87;;
21392;SDS011;10857;52.228;21.026;2023-04-25T02:49:05;22.17;;;16.13;;
21392;SDS011;10857;52.228;21.026;2023-04-25T02:51:33;22.63;;;16.47;;
21392;SDS011;10857;52.228;21.026;2023-04-25T02:54:01;22.90;;;15.57;;
21392;SDS011;10857;52.228;21.026;2023-04-25T02:56:31;23.60;;;15.40;;
21392;SDS011;10857;52.228;21.026;2023-04-25T02:58:59;20.67;;;15.37;;
21392;SDS011;10857;52.228;21.026;2023-04-25T03:01:27;23.07;;;16.00;;
21392;SDS011;10857;52.228;21.026;2023-04-25T03:03:55;22.43;;;15.30;;
21392;SDS011;10857;52.228;21.026;2023-04-25T03:06:23;22.90;;;15.40;;
21392;SDS011;10857;52.228;21.026;2023-04-25T03:08:51;24.40;;;15.97;;
21392;SDS011;10857;52.228;21.026;2023-04-25T03:11:18;21.60;;;15.97;;
21392;SDS011;10857;52.228;21.026;2023-04-25T03:13:46;26.23;;;16.40;;
21392;SDS011;10857;52.228;21.026;2023-04-25T03:16:14;22.60;;;15.13;;
21392;SDS011;10857;52.228;21.026;2023-04-25T03:18:42;22.70;;;15.33;;
21392;SDS011;10857;52.228;21.026;2023-04-25T03:21:09;23.43;;;15.83;;
21392;SDS011;10857;52.228;21.026;2023-04-25T03:23:37;24.63;;;14.67;;
21392;SDS011;10857;52.228;21.026;2023-04-25T03:26:06;25.10;;;15.07;;
21392;SDS011;10857;52.228;21.026;2023-04-25T03:28:33;22.63;;;14.87;;
21392;SDS011;10857;52.228;21.026;2023-04-25T03:31:00;23.10;;;15.20;;
21392;SDS011;10857;52.228;21.026;2023-04-25T03:33:28;23.43;;;15.00;;
21392;SDS011;10857;52.228;21.026;2023-04-25T03:35:56;26.07;;;14.70;;
21392;SDS011;10857;52.228;21.026;2023-04-25T03:38:24;24.57;;;14.50;;
21392;SDS011;10857;52.228;21.026;2023-04-25T03:40:51;20.07;;;15.00;;
21392;SDS011;10857;52.228;21.026;2023-04-25T03:43:24;21.70;;;15.00;;
21392;SDS011;10857;52.228;21.026;2023-04-25T03:45:59;21.47;;;14.47;;
21392;SDS011;10857;52.228;21.026;2023-04-25T03:48:27;20.83;;;13.87;;
21392;SDS011;10857;52.228;21.026;2023-04-25T03:50:54;22.40;;;14.07;;
21392;SDS011;10857;52.228;21.026;2023-04-25T03:53:28;19.73;;;13.73;;
21392;SDS011;10857;52.228;21.026;2023-04-25T03:56:13;21.73;;;14.10;;
21392;SDS011;10857;52.228;21.026;2023-04-25T03:58:43;22.60;;;13.87;;
21392;SDS011;10857;52.228;21.026;2023-04-25T04:01:12;21.27;;;13.83;;
21392;SDS011;10857;52.228;21.026;2023-04-25T04:03:40;25.07;;;14.07;;
21392;SDS011;10857;52.228;21.026;2023-04-25T04:06:08;23.27;;;13.80;;
21392;SDS011;10857;52.228;21.026;2023-04-25T04:08:43;21.23;;;13.17;;
21392;SDS011;10857;52.228;21.026;2023-04-25T04:11:11;21.53;;;13.67;;
21392;SDS011;10857;52.228;21.026;2023-04-25T04:13:38;20.17;;;13.43;;
21392;SDS011;10857;52.228;21.026;2023-04-25T04:16:06;23.33;;;13.97;;
21392;SDS011;10857;52.228;21.026;2023-04-25T04:18:34;18.97;;;13.63;;
21392;SDS011;10857;52.228;21.026;2023-04-25T04:21:03;22.93;;;14.50;;
21392;SDS011;10857;52.228;21.026;2023-04-25T04:23:33;20.73;;;13.63;;
21392;SDS011;10857;52.228;21.026;2023-04-25T04:26:03;18.43;;;13.37;;
21392;SDS011;10857;52.228;21.026;2023-04-25T04:28:51;18.90;;;13.90;;
21392;SDS011;10857;52.228;21.026;2023-04-25T04:31:56;18.27;;;13.90;;
21392;SDS011;10857;52.228;21.026;2023-04-25T04:34:23;21.10;;;13.70;;
21392;SDS011;10857;52.228;21.026;2023-04-25T04:36:52;18.87;;;13.10;;
21392;SDS011;10857;52.228;21.026;2023-04-25T04:39:19;19.23;;;13.33;;
21392;SDS011;10857;52.228;21.026;2023-04-25T04:41:59;19.77;;;13.70;;
21392;SDS011;10857;52.228;21.026;2023-04-25T04:44:37;21.07;;;14.37;;
21392;SDS011;10857;52.228;21.026;2023-04-25T04:47:24;18.93;;;13.43;;
21392;SDS011;10857;52.228;21.026;2023-04-25T04:50:11;20.47;;;13.50;;
21392;SDS011;10857;52.228;21.026;2023-04-25T04:52:57;18.53;;;13.03;;
21392;SDS011;10857;52.228;21.026;2023-04-25T04:55:45;18.47;;;13.87;;
21392;SDS011;10857;52.228;21.026;2023-04-25T04:58:30;26.07;;;13.80;;
21392;SDS011;10857;52.228;21.026;2023-04-25T05:01:07;18.83;;;12.63;;
21392;SDS011;10857;52.228;21.026;2023-04-25T05:03:55;20.40;;;13.33;;
21392;SDS011;10857;52.228;21.026;2023-04-25T05:06:42;18.27;;;13.57;;
21392;SDS011;10857;52.228;21.026;2023-04-25T05:09:43;19.33;;;14.10;;
21392;SDS011;10857;52.228;21.026;2023-04-25T05:12:43;19.63;;;14.67;;
21392;SDS011;10857;52.228;21.026;2023-04-25T05:15:43;23.17;;;15.40;;
21392;SDS011;10857;52.228;21.026;2023-04-25T05:18:46;22.97;;;15.73;;
21392;SDS011;10857;52.228;21.026;2023-04-25T05:21:39;19.87;;;16.10;;
21392;SDS011;10857;52.228;21.026;2023-04-25T05:24:32;21.83;;;16.77;;
21392;SDS011;10857;52.228;21.026;2023-04-25T05:27:42;20.67;;;15.73;;
21392;SDS011;10857;52.228;21.026;2023-04-25T05:30:39;21.23;;;16.07;;
21392;SDS011;10857;52.228;21.026;2023-04-25T05:33:27;22.60;;;15.80;;
21392;SDS011;10857;52.228;21.026;2023-04-25T05:36:15;22.00;;;15.47;;
21392;SDS011;10857;52.228;21.026;2023-04-25T05:38:56;20.33;;;14.87;;
21392;SDS011;10857;52.228;21.026;2023-04-25T05:41:57;19.60;;;15.43;;
21392;SDS011;10857;52.228;21.026;2023-04-25T05:45:17;21.17;;;15.80;;
21392;SDS011;10857;52.228;21.026;2023-04-25T05:48:27;23.23;;;15.83;;
21392;SDS011;10857;52.228;21.026;2023-04-25T05:51:34;20.40;;;15.70;;
21392;SDS011;10857;52.228;21.026;2023-04-25T05:54:19;19.27;;;15.23;;
21392;SDS011;10857;52.228;21.026;2023-04-25T05:56:46;20.50;;;16.23;;
21392;SDS011;10857;52.228;21.026;2023-04-25T05:59:14;20.90;;;16.63;;
21392;SDS011;10857;52.228;21.026;2023-04-25T06:01:42;21.00;;;16.50;;
21392;SDS011;10857;52.228;21.026;2023-04-25T06:04:09;20.83;;;16.77;;
21392;SDS011;10857;52.228;21.026;2023-04-25T06:06:37;22.77;;;17.50;;
21392;SDS011;10857;52.228;21.026;2023-04-25T06:09:05;23.60;;;17.90;;
21392;SDS011;10857;52.228;21.026;2023-04-25T06:11:33;21.70;;;16.67;;
21392;SDS011;10857;52.228;21.026;2023-04-25T06:14:02;22.30;;;17.83;;
21392;SDS011;10857;52.228;21.026;2023-04-25T06:16:33;23.27;;;17.20;;
21392;SDS011;10857;52.228;21.026;2023-04-25T06:19:01;20.67;;;16.40;;
21392;SDS011;10857;52.228;21.026;2023-04-25T06:21:28;20.67;;;17.07;;
21392;SDS011;10857;52.228;21.026;2023-04-25T06:23:57;20.53;;;17.00;;
21392;SDS011;10857;52.228;21.026;2023-04-25T06:26:27;22.67;;;17.73;;
21392;SDS011;10857;52.228;21.026;2023-04-25T06:28:57;25.33;;;18.77;;
21392;SDS011;10857;52.228;21.026;2023-04-25T06:31:24;22.23;;;17.30;;
21392;SDS011;10857;52.228;21.026;2023-04-25T06:33:54;23.97;;;18.67;;
21392;SDS011;10857;52.228;21.026;2023-04-25T06:36:24;21.93;;;17.97;;
21392;SDS011;10857;52.228;21.026;2023-04-25T06:38:56;21.90;;;17.67;;
21392;SDS011;10857;52.228;21.026;2023-04-25T06:41:25;23.73;;;18.00;;
21392;SDS011;10857;52.228;21.026;2023-04-25T06:43:56;17.67;;;13.73;;
21392;SDS011;10857;52.228;21.026;2023-04-25T06:46:29;19.13;;;13.83;;
21392;SDS011;10857;52.228;21.026;2023-04-25T06:48:58;19.40;;;13.57;;
21392;SDS011;10857;52.228;21.026;2023-04-25T06:51:25;18.47;;;13.73;;
21392;SDS011;10857;52.228;21.026;2023-04-25T06:53:55;17.77;;;12.27;;
21392;SDS011;10857;52.228;21.026;2023-04-25T06:56:29;16.87;;;13.40;;
21392;SDS011;10857;52.228;21.026;2023-04-25T06:59:03;18.27;;;14.10;;
21392;SDS011;10857;52.228;21.026;2023-04-25T07:01:38;16.63;;;13.20;;
21392;SDS011;10857;52.228;21.026;2023-04-25T07:04:25;20.20;;;14.20;;
21392;SDS011;10857;52.228;21.026;2023-04-25T07:07:16;18.13;;;14.77;;
21392;SDS011;10857;52.228;21.026;2023-04-25T07:09:51;18.27;;;14.97;;
21392;SDS011;10857;52.228;21.026;2023-04-25T07:12:19;20.17;;;15.77;;
21392;SDS011;10857;52.228;21.026;2023-04-25T07:14:47;20.53;;;15.57;;
21392;SDS011;10857;52.228;21.026;2023-04-25T07:17:15;23.57;;;16.40;;
21392;SDS011;10857;52.228;21.026;2023-04-25T07:19:42;19.77;;;15.23;;
21392;SDS011;10857;52.228;21.026;2023-04-25T07:22:10;24.23;;;17.10;;
21392;SDS011;10857;52.228;21.026;2023-04-25T07:24:40;23.37;;;18.20;;
21392;SDS011;10857;52.228;21.026;2023-04-25T07:27:11;20.77;;;15.87;;
21392;SDS011;10857;52.228;21.026;2023-04-25T07:30:09;20.73;;;15.73;;
21392;SDS011;10857;52.228;21.026;2023-04-25T07:32:38;16.70;;;14.60;;
21392;SDS011;10857;52.228;21.026;2023-04-25T07:35:06;18.17;;;13.67;;
21392;SDS011;10857;52.228;21.026;2023-04-25T07:37:34;17.45;;;15.65;;
21392;SDS011;10857;52.228;21.026;2023-04-25T07:40:09;19.63;;;14.63;;
21392;SDS011;10857;52.228;21.026;2023-04-25T07:42:41;20.17;;;13.73;;
21392;SDS011;10857;52.228;21.026;2023-04-25T07:45:31;17.70;;;14.07;;
21392;SDS011;10857;52.228;21.026;2023-04-25T07:47:59;17.93;;;13.27;;
21392;SDS011;10857;52.228;21.026;2023-04-25T07:50:29;20.00;;;12.90;;
21392;SDS011;10857;52.228;21.026;2023-04-25T07:52:57;17.27;;;12.97;;
21392;SDS011;10857;52.228;21.026;2023-04-25T07:55:30;16.13;;;11.97;;
21392;SDS011;10857;52.228;21.026;2023-04-25T07:58:04;15.93;;;11.97;;
21392;SDS011;10857;52.228;21.026;2023-04-25T08:00:32;15.13;;;12.07;;
21392;SDS011;10857;52.228;21.026;2023-04-25T08:03:18;19.10;;;12.57;;
21392;SDS011;10857;52.228;21.026;2023-04-25T08:05:49;14.20;;;11.93;;
21392;SDS011;10857;52.228;21.026;2023-04-25T08:08:17;15.90;;;12.00;;
21392;SDS011;10857;52.228;21.026;2023-04-25T08:10:46;15.20;;;11.80;;
21392;SDS011;10857;52.228;21.026;2023-04-25T08:13:15;15.13;;;12.00;;
21392;SDS011;10857;52.228;21.026;2023-04-25T08:15:44;17.30;;;13.47;;
21392;SDS011;10857;52.228;21.026;2023-04-25T08:18:12;20.10;;;15.23;;
21392;SDS011;10857;52.228;21.026;2023-04-25T08:20:43;21.70;;;16.67;;
21392;SDS011;10857;52.228;21.026;2023-04-25T08:23:13;28.37;;;19.20;;
21392;SDS011;10857;52.228;21.026;2023-04-25T08:25:50;23.50;;;18.50;;
21392;SDS011;10857;52.228;21.026;2023-04-25T08:28:21;23.93;;;18.43;;
21392;SDS011;10857;52.228;21.026;2023-04-25T08:30:49;22.83;;;16.13;;
21392;SDS011;10857;52.228;21.026;2023-04-25T08:33:18;18.70;;;14.00;;
21392;SDS011;10857;52.228;21.026;2023-04-25T08:36:04;17.50;;;14.67;;
21392;SDS011;10857;52.228;21.026;2023-04-25T08:38:33;19.50;;;14.20;;
21392;SDS011;10857;52.228;21.026;2023-04-25T08:41:03;16.37;;;11.67;;
21392;SDS011;10857;52.228;21.026;2023-04-25T08:43:32;15.07;;;10.30;;
21392;SDS011;10857;52.228;21.026;2023-04-25T08:46:00;12.93;;;10.73;;
21392;SDS011;10857;52.228;21.026;2023-04-25T08:48:46;13.80;;;10.90;;
21392;SDS011;10857;52.228;21.026;2023-04-25T08:51:21;13.33;;;10.00;;
21392;SDS011;10857;52.228;21.026;2023-04-25T08:53:54;17.90;;;11.33;;
21392;SDS011;10857;52.228;21.026;2023-04-25T08:56:40;15.97;;;12.30;;
21392;SDS011;10857;52.228;21.026;2023-04-25T08:59:09;15.20;;;12.83;;
21392;SDS011;10857;52.228;21.026;2023-04-25T09:01:37;18.87;;;13.27;;
21392;SDS011;10857;52.228;21.026;2023-04-25T09:04:05;16.93;;;13.73;;
21392;SDS011;10857;52.228;21.026;2023-04-25T09:06:33;15.67;;;13.60;;
21392;SDS011;10857;52.228;21.026;2023-04-25T09:09:02;15.23;;;12.93;;
21392;SDS011;10857;52.228;21.026;2023-04-25T09:11:31;16.67;;;13.73;;
21392;SDS011;10857;52.228;21.026;2023-04-25T09:14:18;17.23;;;13.77;;
21392;SDS011;10857;52.228;21.026;2023-04-25T09:17:00;13.90;;;11.77;;
21392;SDS011;10857;52.228;21.026;2023-04-25T09:19:50;13.63;;;11.37;;
21392;SDS011;10857;52.228;21.026;2023-04-25T09:22:30;14.80;;;11.23;;
21392;SDS011;10857;52.228;21.026;2023-04-25T09:24:58;14.57;;;11.87;;
21392;SDS011;10857;52.228;21.026;2023-04-25T09:27:29;16.00;;;13.50;;
21392;SDS011;10857;52.228;21.026;2023-04-25T09:30:05;18.07;;;14.03;;
21392;SDS011;10857;52.228;21.026;2023-04-25T09:32:55;17.37;;;14.00;;
21392;SDS011;10857;52.228;21.026;2023-04-25T09:35:24;18.40;;;15.20;;
21392;SDS011;10857;52.228;21.026;2023-04-25T09:37:58;20.47;;;15.30;;
21392;SDS011;10857;52.228;21.026;2023-04-25T09:40:45;20.43;;;15.47;;
21392;SDS011;10857;52.228;21.026;2023-04-25T09:43:23;21.30;;;15.00;;
21392;SDS011;10857;52.228;21.026;2023-04-25T09:45:51;20.07;;;16.00;;
21392;SDS011;10857;52.228;21.026;2023-04-25T09:48:24;19.53;;;15.77;;
21392;SDS011;10857;52.228;21.026;2023-04-25T09:51:15;18.60;;;15.10;;
21392;SDS011;10857;52.228;21.026;2023-04-25T09:53:45;20.00;;;16.03;;
21392;SDS011;10857;52.228;21.026;2023-04-25T09:56:20;22.37;;;16.73;;
21392;SDS011;10857;52.228;21.026;2023-04-25T09:58:49;20.30;;;16.27;;
21392;SDS011;10857;52.228;21.026;2023-04-25T10:01:18;21.70;;;16.53;;
21392;SDS011;10857;52.228;21.026;2023-04-25T10:04:00;20.60;;;16.53;;
21392;SDS011;10857;52.228;21.026;2023-04-25T10:06:41;22.17;;;17.60;;
21392;SDS011;10857;52.228;21.026;2023-04-25T10:09:10;22.60;;;18.10;;
21392;SDS011;10857;52.228;21.026;2023-04-25T10:11:38;22.30;;;17.87;;
21392;SDS011;10857;52.228;21.026;2023-04-25T10:14:06;23.20;;;18.40;;
21392;SDS011;10857;52.228;21.026;2023-04-25T10:16:34;24.87;;;18.97;;
21392;SDS011;10857;52.228;21.026;2023-04-25T10:19:03;25.33;;;19.97;;
21392;SDS011;10857;52.228;21.026;2023-04-25T10:21:33;26.27;;;19.70;;
21392;SDS011;10857;52.228;21.026;2023-04-25T10:24:06;29.10;;;20.60;;
21392;SDS011;10857;52.228;21.026;2023-04-25T10:26:37;29.93;;;21.80;;
21392;SDS011;10857;52.228;21.026;2023-04-25T10:29:05;27.70;;;21.97;;
21392;SDS011;10857;52.228;21.026;2023-04-25T10:31:32;30.20;;;23.10;;
21392;SDS011;10857;52.228;21.026;2023-04-25T10:34:00;27.10;;;22.13;;
21392;SDS011;10857;52.228;21.026;2023-04-25T10:36:31;31.40;;;22.83;;
21392;SDS011;10857;52.228;21.026;2023-04-25T10:39:00;33.37;;;22.60;;
21392;SDS011;10857;52.228;21.026;2023-04-25T10:41:45;29.47;;;21.93;;
21392;SDS011;10857;52.228;21.026;2023-04-25T10:44:15;33.27;;;22.97;;
21392;SDS011;10857;52.228;21.026;2023-04-25T10:46:44;28.20;;;22.33;;
21392;SDS011;10857;52.228;21.026;2023-04-25T10:54:53;27.17;;;22.43;;
21392;SDS011;10857;52.228;21.026;2023-04-25T10:59:59;26.13;;;21.97;;
21392;SDS011;10857;52.228;21.026;2023-04-25T11:02:28;26.67;;;21.93;;
21392;SDS011;10857;52.228;21.026;2023-04-25T11:04:56;29.20;;;23.13;;
21392;SDS011;10857;52.228;21.026;2023-04-25T11:09:54;27.77;;;22.57;;
21392;SDS011;10857;52.228;21.026;2023-04-25T11:12:27;28.03;;;21.87;;
21392;SDS011;10857;52.228;21.026;2023-04-25T11:15:01;26.70;;;22.30;;
21392;SDS011;10857;52.228;21.026;2023-04-25T11:17:29;30.17;;;21.97;;
21392;SDS011;10857;52.228;21.026;2023-04-25T11:19:56;25.27;;;21.27;;
21392;SDS011;10857;52.228;21.026;2023-04-25T11:22:24;25.63;;;21.00;;
21392;SDS011;10857;52.228;21.026;2023-04-25T11:24:53;25.97;;;20.57;;
21392;SDS011;10857;52.228;21.026;2023-04-25T11:27:21;27.83;;;22.07;;
21392;SDS011;10857;52.228;21.026;2023-04-25T11:29:51;29.20;;;21.97;;
21392;SDS011;10857;52.228;21.026;2023-04-25T11:32:18;25.50;;;20.43;;
21392;SDS011;10857;52.228;21.026;2023-04-25T11:34:47;22.67;;;18.87;;
21392;SDS011;10857;52.228;21.026;2023-04-25T11:37:34;24.97;;;19.10;;
21392;SDS011;10857;52.228;21.026;2023-04-25T11:40:03;23.43;;;18.43;;
21392;SDS011;10857;52.228;21.026;2023-04-25T11:42:32;21.83;;;18.13;;
21392;SDS011;10857;52.228;21.026;2023-04-25T11:45:04;26.17;;;19.50;;
21392;SDS011;10857;52.228;21.026;2023-04-25T11:47:35;22.93;;;18.07;;
21392;SDS011;10857;52.228;21.026;2023-04-25T11:50:03;23.33;;;18.50;;
21392;SDS011;10857;52.228;21.026;2023-04-25T11:52:41;23.17;;;18.37;;
21392;SDS011;10857;52.228;21.026;2023-04-25T11:55:14;22.83;;;18.27;;
21392;SDS011;10857;52.228;21.026;2023-04-25T11:58:01;21.80;;;17.03;;
21392;SDS011;10857;52.228;21.026;2023-04-25T12:00:30;22.23;;;18.60;;
21392;SDS011;10857;52.228;21.026;2023-04-25T12:02:58;23.50;;;19.80;;
21392;SDS011;10857;52.228;21.026;2023-04-25T12:05:29;19.93;;;15.70;;
21392;SDS011;10857;52.228;21.026;2023-04-25T12:08:10;20.23;;;16.90;;
21392;SDS011;10857;52.228;21.026;2023-04-25T12:10:40;20.77;;;17.70;;
21392;SDS011;10857;52.228;21.026;2023-04-25T12:15:49;18.00;;;15.60;;
21392;SDS011;10857;52.228;21.026;2023-04-25T12:18:20;29.83;;;20.73;;
21392;SDS011;10857;52.228;21.026;2023-04-25T12:20:48;17.23;;;14.60;;
21392;SDS011;10857;52.228;21.026;2023-04-25T12:23:15;21.60;;;15.50;;
21392;SDS011;10857;52.228;21.026;2023-04-25T12:25:43;15.93;;;13.80;;
21392;SDS011;10857;52.228;21.026;2023-04-25T12:28:22;21.33;;;14.50;;
21392;SDS011;10857;52.228;21.026;2023-04-25T12:31:05;16.67;;;12.20;;
21392;SDS011;10857;52.228;21.026;2023-04-25T12:33:33;22.23;;;16.47;;
21392;SDS011;10857;52.228;21.026;2023-04-25T12:36:02;16.00;;;12.10;;
21392;SDS011;10857;52.228;21.026;2023-04-25T12:38:39;15.73;;;11.60;;
21392;SDS011;10857;52.228;21.026;2023-04-25T12:41:08;18.30;;;11.10;;
21392;SDS011;10857;52.228;21.026;2023-04-25T12:43:37;14.20;;;11.17;;
21392;SDS011;10857;52.228;21.026;2023-04-25T12:46:04;15.03;;;12.07;;
21392;SDS011;10857;52.228;21.026;2023-04-25T12:48:34;17.40;;;13.50;;
21392;SDS011;10857;52.228;21.026;2023-04-25T12:51:02;17.40;;;11.57;;
21392;SDS011;10857;52.228;21.026;2023-04-25T12:53:32;13.77;;;10.57;;
21392;SDS011;10857;52.228;21.026;2023-04-25T12:56:02;15.30;;;10.90;;
21392;SDS011;10857;52.228;21.026;2023-04-25T12:58:30;12.70;;;10.40;;
21392;SDS011;10857;52.228;21.026;2023-04-25T13:00:59;12.83;;;10.73;;
21392;SDS011;10857;52.228;21.026;2023-04-25T13:03:27;12.87;;;10.53;;
21392;SDS011;10857;52.228;21.026;2023-04-25T13:05:55;14.23;;;10.70;;
21392;SDS011;10857;52.228;21.026;2023-04-25T13:08:22;14.37;;;10.97;;
21392;SDS011;10857;52.228;21.026;2023-04-25T13:10:51;13.43;;;10.40;;
21392;SDS011;10857;52.228;21.026;2023-04-25T13:13:21;12.37;;;10.13;;
21392;SDS011;10857;52.228;21.026;2023-04-25T13:15:48;13.40;;;10.83;;
21392;SDS011;10857;52.228;21.026;2023-04-25T13:18:16;14.97;;;11.03;;
21392;SDS011;10857;52.228;21.026;2023-04-25T13:20:43;15.23;;;10.70;;
21392;SDS011;10857;52.228;21.026;2023-04-25T13:23:12;15.23;;;10.57;;
21392;SDS011;10857;52.228;21.026;2023-04-25T13:25:39;12.87;;;10.20;;
21392;SDS011;10857;52.228;21.026;2023-04-25T13:28:07;14.60;;;10.30;;
21392;SDS011;10857;52.228;21.026;2023-04-25T13:30:35;13.27;;;10.13;;
21392;SDS011;10857;52.228;21.026;2023-04-25T13:33:02;12.70;;;9.53;;
21392;SDS011;10857;52.228;21.026;2023-04-25T13:35:30;12.20;;;9.53;;
21392;SDS011;10857;52.228;21.026;2023-04-25T13:37:57;11.70;;;8.93;;
21392;SDS011;10857;52.228;21.026;2023-04-25T13:40:25;13.13;;;10.00;;
21392;SDS011;10857;52.228;21.026;2023-04-25T13:42:54;16.90;;;9.97;;
21392;SDS011;10857;52.228;21.026;2023-04-25T13:45:25;13.30;;;9.70;;
21392;SDS011;10857;52.228;21.026;2023-04-25T13:47:53;12.07;;;9.67;;
21392;SDS011;10857;52.228;21.026;2023-04-25T13:50:23;12.03;;;9.33;;
21392;SDS011;10857;52.228;21.026;2023-04-25T13:52:50;12.60;;;9.63;;
21392;SDS011;10857;52.228;21.026;2023-04-25T13:55:18;12.07;;;9.30;;
21392;SDS011;10857;52.228;21.026;2023-04-25T13:57:45;12.83;;;9.53;;
21392;SDS011;10857;52.228;21.026;2023-04-25T14:00:13;12.17;;;9.10;;
21392;SDS011;10857;52.228;21.026;2023-04-25T14:02:41;13.03;;;8.80;;
21392;SDS011;10857;52.228;21.026;2023-04-25T14:05:10;14.10;;;9.83;;
21392;SDS011;10857;52.228;21.026;2023-04-25T14:07:37;11.23;;;8.10;;
21392;SDS011;10857;52.228;21.026;2023-04-25T14:10:05;9.87;;;8.40;;
21392;SDS011;10857;52.228;21.026;2023-04-25T14:12:33;12.27;;;7.80;;
21392;SDS011;10857;52.228;21.026;2023-04-25T14:15:16;11.17;;;8.90;;
21392;SDS011;10857;52.228;21.026;2023-04-25T14:17:43;9.37;;;8.30;;
21392;SDS011;10857;52.228;21.026;2023-04-25T14:20:12;9.63;;;8.37;;
21392;SDS011;10857;52.228;21.026;2023-04-25T14:22:40;11.53;;;8.10;;
21392;SDS011;10857;52.228;21.026;2023-04-25T14:25:10;12.27;;;8.37;;
21392;SDS011;10857;52.228;21.026;2023-04-25T14:27:37;11.57;;;8.13;;
21392;SDS011;10857;52.228;21.026;2023-04-25T14:30:14;12.70;;;8.30;;
21392;SDS011;10857;52.228;21.026;2023-04-25T14:32:41;11.53;;;8.10;;
21392;SDS011;10857;52.228;21.026;2023-04-25T14:35:12;10.80;;;8.37;;
21392;SDS011;10857;52.228;21.026;2023-04-25T14:37:40;10.77;;;8.77;;
21392;SDS011;10857;52.228;21.026;2023-04-25T14:40:25;10.90;;;8.97;;
21392;SDS011;10857;52.228;21.026;2023-04-25T14:42:55;12.90;;;9.57;;
21392;SDS011;10857;52.228;21.026;2023-04-25T14:45:22;12.45;;;9.68;;
21392;SDS011;10857;52.228;21.026;2023-04-25T14:47:52;11.57;;;9.00;;
21392;SDS011;10857;52.228;21.026;2023-04-25T14:50:19;12.10;;;9.40;;
21392;SDS011;10857;52.228;21.026;2023-04-25T14:52:47;12.80;;;9.17;;
21392;SDS011;10857;52.228;21.026;2023-04-25T14:55:14;13.53;;;9.97;;
21392;SDS011;10857;52.228;21.026;2023-04-25T14:57:41;13.03;;;9.63;;